createdAt,value
2022-09-15T00:01:20.411Z,13.10
2022-09-15T00:03:48.911Z,13.10
2022-09-15T00:06:19.289Z,13.20
2022-09-15T00:08:48.541Z,13.10
2022-09-15T00:11:30.448Z,13.10
2022-09-15T00:14:06.270Z,13.10
2022-09-15T00:16:36.640Z,13.10
2022-09-15T00:19:07.324Z,13.10
2022-09-15T00:21:41.811Z,13.10
2022-09-15T00:24:11.507Z,13.00
2022-09-15T00:26:40.437Z,13.00
2022-09-15T00:29:14.443Z,12.90
2022-09-15T00:31:42.238Z,12.80
2022-09-15T00:34:14.312Z,12.70
2022-09-15T00:36:42.417Z,12.70
2022-09-15T00:39:10.529Z,12.50
2022-09-15T00:41:41.297Z,12.40
2022-09-15T00:44:23.801Z,12.30
2022-09-15T00:47:17.851Z,12.20
2022-09-15T00:49:53.948Z,12.20
2022-09-15T00:52:53.148Z,12.20
2022-09-15T00:55:31.360Z,12.20
2022-09-15T00:58:12.902Z,12.00
2022-09-15T01:00:57.309Z,12.00
2022-09-15T01:03:30.580Z,12.00
2022-09-15T01:06:38.160Z,12.00
2022-09-15T01:09:45.044Z,11.90
2022-09-15T01:12:13.382Z,11.80
2022-09-15T01:14:40.912Z,11.80
2022-09-15T01:17:34.613Z,11.80
2022-09-15T01:20:36.865Z,11.80
2022-09-15T01:24:42.695Z,11.90
2022-09-15T01:27:43.134Z,11.80
2022-09-15T01:30:26.594Z,11.70
2022-09-15T01:34:00.479Z,11.80
2022-09-15T01:36:50.893Z,11.80
2022-09-15T01:39:33.592Z,11.90
2022-09-15T01:42:10.405Z,11.90
2022-09-15T01:45:11.700Z,11.80
2022-09-15T01:47:42.188Z,11.90
2022-09-15T01:50:22.612Z,11.80
2022-09-15T01:52:59.648Z,11.90
2022-09-15T01:55:44.526Z,11.90
2022-09-15T01:58:12.342Z,11.90
2022-09-15T02:00:53.720Z,12.00
2022-09-15T02:03:54.960Z,12.10
2022-09-15T02:06:53.390Z,12.10
2022-09-15T02:09:50.669Z,12.10
2022-09-15T02:12:57.758Z,12.20
2022-09-15T02:15:48.049Z,12.30
2022-09-15T02:18:45.470Z,12.30
2022-09-15T02:21:36.378Z,12.30
2022-09-15T02:24:19.812Z,12.40
2022-09-15T02:26:55.085Z,12.40
2022-09-15T02:29:28.361Z,12.40
2022-09-15T02:32:02.635Z,12.50
2022-09-15T02:34:44.562Z,12.60
2022-09-15T02:37:13.983Z,12.60
2022-09-15T02:39:54.725Z,12.60
2022-09-15T02:42:32.815Z,12.60
2022-09-15T02:45:02.437Z,12.70
2022-09-15T02:47:32.103Z,12.70
2022-09-15T02:50:00.249Z,12.70
2022-09-15T02:52:27.905Z,12.70
2022-09-15T02:54:55.577Z,12.80
2022-09-15T02:57:24.156Z,12.80
2022-09-15T03:00:10.216Z,12.80
2022-09-15T03:02:37.835Z,12.90
2022-09-15T03:05:08.081Z,12.90
2022-09-15T03:07:37.624Z,12.90
2022-09-15T03:10:09.822Z,12.90
2022-09-15T03:12:46.105Z,12.90
2022-09-15T03:15:19.758Z,13.00
2022-09-15T03:17:49.444Z,13.00
2022-09-15T03:20:30.457Z,13.00
2022-09-15T03:22:58.136Z,13.00
2022-09-15T03:25:27.051Z,13.00
2022-09-15T03:27:54.880Z,13.00
2022-09-15T03:30:22.511Z,13.00
2022-09-15T03:32:50.610Z,13.00
2022-09-15T03:35:18.439Z,13.00
2022-09-15T03:37:46.105Z,13.10
2022-09-15T03:40:14.661Z,13.10
2022-09-15T03:42:42.557Z,13.10
2022-09-15T03:45:10.490Z,13.00
2022-09-15T03:47:38.083Z,13.00
2022-09-15T03:50:07.055Z,13.00
2022-09-15T03:52:34.672Z,13.00
2022-09-15T03:55:02.286Z,13.00
2022-09-15T03:57:29.792Z,13.00
2022-09-15T03:59:57.368Z,13.00
2022-09-15T04:02:25.071Z,13.00
2022-09-15T04:04:52.718Z,13.00
2022-09-15T04:07:20.270Z,13.10
2022-09-15T04:09:47.849Z,13.10
2022-09-15T04:12:16.496Z,13.10
2022-09-15T04:14:44.274Z,13.10
2022-09-15T04:17:11.819Z,13.10
2022-09-15T04:19:39.369Z,13.10
2022-09-15T04:22:07.157Z,13.00
2022-09-15T04:24:35.075Z,13.10
2022-09-15T04:27:03.299Z,13.10
2022-09-15T04:29:31.046Z,13.10
2022-09-15T04:31:58.740Z,13.10
2022-09-15T04:34:26.410Z,13.20
2022-09-15T04:36:53.964Z,13.20
2022-09-15T04:39:21.686Z,13.20
2022-09-15T04:41:49.238Z,13.20
2022-09-15T04:44:17.012Z,13.20
2022-09-15T04:46:49.262Z,13.20
2022-09-15T04:49:18.022Z,13.20
2022-09-15T04:51:45.915Z,13.20
2022-09-15T04:54:13.647Z,13.20
2022-09-15T04:56:41.200Z,13.20
2022-09-15T04:59:17.888Z,13.20
2022-09-15T05:01:46.695Z,13.20
2022-09-15T05:04:14.597Z,13.30
2022-09-15T05:06:42.169Z,13.30
2022-09-15T05:09:14.531Z,13.30
2022-09-15T05:11:42.172Z,13.30
2022-09-15T05:14:11.820Z,13.30
2022-09-15T05:16:40.324Z,13.30
2022-09-15T05:19:10.114Z,13.30
2022-09-15T05:21:38.559Z,13.30
2022-09-15T05:24:06.789Z,13.30
2022-09-15T05:26:34.381Z,13.30
2022-09-15T05:29:01.992Z,13.20
2022-09-15T05:31:36.685Z,13.20
2022-09-15T05:34:06.365Z,13.20
2022-09-15T05:36:34.739Z,13.10
2022-09-15T05:39:02.537Z,13.20
2022-09-15T05:41:30.982Z,13.30
2022-09-15T05:43:59.475Z,13.40
2022-09-15T05:46:29.387Z,13.40
2022-09-15T05:48:59.390Z,13.40
2022-09-15T05:51:27.703Z,13.40
2022-09-15T05:53:55.330Z,13.50
2022-09-15T05:56:24.701Z,13.50
2022-09-15T05:58:53.061Z,13.50
2022-09-15T06:01:31.120Z,13.60
2022-09-15T06:03:58.997Z,13.50
2022-09-15T06:06:27.204Z,13.50
2022-09-15T06:09:00.660Z,13.50
2022-09-15T06:11:35.974Z,13.50
2022-09-15T06:14:06.073Z,13.50
2022-09-15T06:16:36.288Z,13.60
2022-09-15T06:19:05.370Z,13.60
2022-09-15T06:21:34.551Z,13.60
2022-09-15T06:24:07.818Z,13.70
2022-09-15T06:26:36.459Z,13.70
2022-09-15T06:29:06.439Z,13.70
2022-09-15T06:31:35.836Z,13.70
2022-09-15T06:34:04.159Z,13.70
2022-09-15T06:36:33.153Z,13.70
2022-09-15T06:39:00.691Z,13.70
2022-09-15T06:41:38.195Z,13.70
2022-09-15T06:44:21.521Z,13.70
2022-09-15T06:46:50.626Z,13.70
2022-09-15T06:49:19.223Z,13.80
2022-09-15T06:51:46.878Z,13.80
2022-09-15T06:54:16.331Z,13.80
2022-09-15T06:56:44.703Z,13.90
2022-09-15T06:59:20.091Z,13.90
2022-09-15T07:01:47.938Z,13.90
2022-09-15T07:04:15.591Z,14.00
2022-09-15T07:06:43.153Z,14.10
2022-09-15T07:09:12.568Z,14.10
2022-09-15T07:11:41.141Z,14.10
2022-09-15T07:14:09.109Z,14.20
2022-09-15T07:16:36.783Z,14.20
2022-09-15T07:19:06.010Z,14.30
2022-09-15T07:21:34.609Z,14.50
2022-09-15T07:24:06.823Z,14.50
2022-09-15T07:26:35.422Z,14.70
2022-09-15T07:29:07.483Z,14.70
2022-09-15T07:31:39.293Z,14.90
2022-09-15T07:34:08.313Z,14.80
2022-09-15T07:36:36.775Z,14.80
2022-09-15T07:39:06.252Z,14.90
2022-09-15T07:41:34.464Z,14.90
2022-09-15T07:44:02.834Z,15.00
2022-09-15T07:46:33.441Z,15.10
2022-09-15T07:49:03.369Z,15.10
2022-09-15T07:51:31.827Z,15.10
2022-09-15T07:53:59.497Z,15.30
2022-09-15T07:56:27.360Z,15.40
2022-09-15T07:58:55.057Z,15.50
2022-09-15T08:01:22.809Z,15.60
2022-09-15T08:03:52.628Z,15.60
2022-09-15T08:06:25.571Z,15.50
2022-09-15T08:08:59.231Z,15.50
2022-09-15T08:11:28.406Z,15.60
2022-09-15T08:13:56.302Z,15.70
2022-09-15T08:16:25.229Z,15.70
2022-09-15T08:18:55.238Z,15.90
2022-09-15T08:21:24.028Z,15.90
2022-09-15T08:23:59.988Z,15.80
2022-09-15T08:26:31.041Z,15.90
2022-09-15T08:28:59.357Z,15.90
2022-09-15T08:31:30.191Z,16.00
2022-09-15T08:33:58.014Z,16.10
2022-09-15T08:36:28.207Z,16.20
2022-09-15T08:38:57.067Z,16.20
2022-09-15T08:41:48.536Z,16.30
2022-09-15T08:44:56.917Z,16.40
2022-09-15T08:47:49.032Z,16.50
2022-09-15T08:50:41.045Z,16.50
2022-09-15T08:53:38.859Z,16.20
2022-09-15T08:56:18.419Z,16.20
2022-09-15T08:58:47.199Z,16.40
2022-09-15T09:02:12.657Z,16.80
2022-09-15T09:05:54.389Z,17.00
2022-09-15T09:09:03.409Z,17.00
2022-09-15T09:12:19.321Z,17.40
2022-09-15T09:15:38.073Z,17.10
2022-09-15T09:19:32.346Z,17.30
2022-09-15T09:22:15.905Z,17.20
2022-09-15T09:24:51.689Z,16.80
2022-09-15T09:27:36.048Z,16.70
2022-09-15T09:30:22.094Z,16.80
2022-09-15T09:33:55.128Z,16.60
2022-09-15T09:36:26.504Z,16.70
2022-09-15T09:39:16.149Z,16.90
2022-09-15T09:41:45.083Z,17.10
2022-09-15T09:44:15.548Z,17.20
2022-09-15T09:46:44.328Z,17.40
2022-09-15T09:49:25.205Z,17.10
2022-09-15T09:52:03.749Z,17.20
2022-09-15T09:54:34.357Z,17.10
2022-09-15T09:57:14.354Z,16.90
2022-09-15T09:59:51.938Z,16.90
2022-09-15T10:02:24.963Z,16.70
2022-09-15T10:05:20.695Z,16.80
2022-09-15T10:07:49.091Z,16.70
2022-09-15T10:10:28.878Z,16.40
2022-09-15T10:12:58.157Z,16.20
2022-09-15T10:15:34.914Z,16.00
2022-09-15T10:18:03.272Z,15.90
2022-09-15T10:20:51.536Z,15.70
2022-09-15T10:23:19.071Z,15.60
2022-09-15T10:25:59.258Z,15.50
2022-09-15T10:28:29.082Z,15.50
2022-09-15T10:31:13.394Z,15.40
2022-09-15T10:33:46.211Z,15.30
2022-09-15T10:36:24.581Z,15.00
2022-09-15T10:39:53.374Z,14.60
2022-09-15T10:43:09.020Z,14.30
2022-09-15T10:45:49.058Z,14.00
2022-09-15T10:48:53.162Z,13.80
2022-09-15T10:51:41.859Z,13.80
2022-09-15T10:55:51.144Z,13.80
2022-09-15T10:59:22.962Z,13.90
2022-09-15T11:02:50.651Z,13.90
2022-09-15T11:05:52.097Z,13.70
2022-09-15T11:09:23.590Z,13.90
2022-09-15T11:12:29.768Z,14.20
2022-09-15T11:15:21.703Z,14.10
2022-09-15T11:18:13.801Z,14.10
2022-09-15T11:21:36.859Z,14.50
2022-09-15T11:24:43.596Z,14.70
2022-09-15T11:27:49.641Z,15.20
2022-09-15T11:30:36.617Z,15.30
2022-09-15T11:33:21.169Z,15.70
2022-09-15T11:36:42.002Z,15.40
2022-09-15T11:39:41.722Z,15.50
2022-09-15T11:43:00.582Z,15.90
2022-09-15T11:45:44.585Z,16.30
2022-09-15T11:48:33.864Z,16.80
2022-09-15T11:51:07.202Z,17.30
2022-09-15T11:54:24.079Z,17.90
2022-09-15T11:56:54.677Z,17.80
2022-09-15T11:59:59.412Z,17.30
2022-09-15T12:03:02.575Z,17.20
2022-09-15T12:05:54.689Z,17.50
2022-09-15T12:09:01.307Z,17.90
2022-09-15T12:11:42.561Z,17.50
2022-09-15T12:14:34.162Z,17.20
2022-09-15T12:17:06.526Z,17.00
2022-09-15T12:19:34.115Z,16.90
2022-09-15T12:22:25.835Z,16.80
2022-09-15T12:25:12.959Z,16.70
2022-09-15T12:27:40.623Z,16.60
2022-09-15T12:30:42.000Z,16.70
2022-09-15T12:34:00.159Z,16.70
2022-09-15T12:36:51.245Z,16.80
2022-09-15T12:39:59.141Z,16.80
2022-09-15T12:42:34.668Z,16.80
2022-09-15T12:45:36.386Z,17.20
2022-09-15T12:48:33.934Z,17.40
2022-09-15T12:51:10.636Z,17.40
2022-09-15T12:53:56.953Z,17.10
2022-09-15T12:56:34.310Z,16.90
2022-09-15T12:59:15.136Z,17.10
2022-09-15T13:01:50.723Z,17.20
2022-09-15T13:04:41.462Z,17.30
2022-09-15T13:07:21.452Z,17.40
2022-09-15T13:10:13.678Z,17.50
2022-09-15T13:12:58.382Z,17.60
2022-09-15T13:15:28.697Z,17.40
2022-09-15T13:17:58.164Z,17.40
2022-09-15T13:20:38.937Z,17.90
2022-09-15T13:23:14.723Z,18.60
2022-09-15T13:25:46.813Z,19.10
2022-09-15T13:28:18.227Z,19.10
2022-09-15T13:31:37.552Z,18.60
2022-09-15T13:35:16.844Z,18.60
2022-09-15T13:38:50.393Z,18.70
2022-09-15T13:42:07.112Z,18.50
2022-09-15T13:45:42.478Z,17.60
2022-09-15T13:49:15.487Z,17.60
2022-09-15T13:52:18.965Z,17.70
2022-09-15T13:55:28.015Z,17.60
2022-09-15T14:01:03.658Z,17.60
2022-09-15T14:03:57.907Z,17.70
2022-09-15T14:06:43.357Z,17.70
2022-09-15T14:09:47.772Z,18.10
2022-09-15T14:12:19.679Z,18.10
2022-09-15T14:14:57.236Z,18.00
2022-09-15T14:17:52.905Z,18.30
2022-09-15T14:20:39.931Z,18.20
2022-09-15T14:23:23.433Z,18.00
2022-09-15T14:26:01.449Z,18.00
2022-09-15T14:28:49.744Z,18.10
2022-09-15T14:31:36.966Z,17.80
2022-09-15T14:34:38.748Z,17.70
2022-09-15T14:37:35.553Z,17.70
2022-09-15T14:40:31.787Z,17.70
2022-09-15T14:43:00.530Z,17.90
2022-09-15T14:45:54.101Z,17.90
2022-09-15T14:48:28.414Z,17.90
2022-09-15T14:51:19.128Z,17.90
2022-09-15T14:54:00.344Z,17.80
2022-09-15T14:56:43.157Z,17.90
2022-09-15T14:59:53.198Z,17.90
2022-09-15T15:03:24.095Z,18.20
2022-09-15T15:07:12.081Z,18.10
2022-09-15T15:09:56.915Z,17.90
2022-09-15T15:12:58.343Z,17.90
2022-09-15T15:15:28.521Z,17.90
2022-09-15T15:18:00.544Z,17.60
2022-09-15T15:20:30.853Z,17.50
2022-09-15T15:23:27.664Z,17.30
2022-09-15T15:26:35.868Z,17.10
2022-09-15T15:29:29.068Z,17.00
2022-09-15T15:32:29.069Z,17.00
2022-09-15T15:35:04.120Z,16.90
2022-09-15T15:37:35.092Z,16.80
2022-09-15T15:40:14.175Z,16.70
2022-09-15T15:43:17.112Z,16.70
2022-09-15T15:46:03.864Z,16.60
2022-09-15T15:48:38.198Z,16.40
2022-09-15T15:51:09.830Z,16.50
2022-09-15T15:53:38.750Z,16.40
2022-09-15T15:56:09.108Z,16.40
2022-09-15T15:58:37.088Z,16.60
2022-09-15T16:01:05.458Z,16.80
2022-09-15T16:03:34.207Z,16.90
2022-09-15T16:06:03.454Z,16.90
2022-09-15T16:08:42.041Z,17.00
2022-09-15T16:11:17.035Z,17.00
2022-09-15T16:13:45.104Z,17.00
2022-09-15T16:16:22.793Z,17.00
2022-09-15T16:18:51.061Z,16.90
2022-09-15T16:21:38.428Z,16.70
2022-09-15T16:24:14.896Z,16.60
2022-09-15T16:26:45.045Z,16.50
2022-09-15T16:29:13.288Z,16.60
2022-09-15T16:31:43.031Z,16.70
2022-09-15T16:34:17.852Z,16.60
2022-09-15T16:36:46.450Z,16.60
2022-09-15T16:39:14.300Z,16.40
2022-09-15T16:41:42.234Z,16.30
2022-09-15T16:44:20.365Z,16.30
2022-09-15T16:46:48.162Z,16.30
2022-09-15T16:49:15.780Z,16.30
2022-09-15T16:51:43.391Z,16.20
2022-09-15T16:54:22.807Z,16.20
2022-09-15T16:56:51.999Z,16.20
2022-09-15T16:59:19.524Z,16.20
2022-09-15T17:01:47.163Z,16.10
2022-09-15T17:04:19.332Z,16.10
2022-09-15T17:06:47.560Z,16.10
2022-09-15T17:09:15.104Z,16.00
2022-09-15T17:11:43.112Z,15.90
2022-09-15T17:14:16.494Z,15.80
2022-09-15T17:16:47.395Z,15.80
2022-09-15T17:19:15.073Z,15.70
2022-09-15T17:21:42.667Z,15.70
2022-09-15T17:24:10.844Z,15.60
2022-09-15T17:26:38.492Z,15.50
2022-09-15T17:29:06.764Z,15.50
2022-09-15T17:31:34.552Z,15.50
2022-09-15T17:34:02.724Z,15.50
2022-09-15T17:36:30.512Z,15.50
2022-09-15T17:38:58.052Z,15.40
2022-09-15T17:41:25.845Z,15.40
2022-09-15T17:43:53.573Z,15.40
2022-09-15T17:46:21.330Z,15.40
2022-09-15T17:48:49.012Z,15.30
2022-09-15T17:51:17.949Z,15.20
2022-09-15T17:53:47.270Z,15.20
2022-09-15T17:56:15.051Z,15.10
2022-09-15T17:58:43.207Z,15.00
2022-09-15T18:01:15.603Z,14.90
2022-09-15T18:03:45.271Z,14.80
2022-09-15T18:06:13.789Z,14.80
2022-09-15T18:08:41.929Z,14.80
2022-09-15T18:11:15.256Z,14.80
2022-09-15T18:13:43.225Z,14.80
2022-09-15T18:16:15.276Z,14.80
2022-09-15T18:18:43.096Z,14.80
2022-09-15T18:21:28.771Z,14.90
2022-09-15T18:23:56.823Z,14.90
2022-09-15T18:26:26.569Z,15.00
2022-09-15T18:28:54.997Z,15.00
2022-09-15T18:31:22.865Z,15.00
2022-09-15T18:33:50.659Z,15.10
2022-09-15T18:36:18.331Z,15.20
2022-09-15T18:38:46.113Z,15.20
2022-09-15T18:41:13.677Z,15.20
2022-09-15T18:43:42.061Z,15.20
2022-09-15T18:46:09.647Z,15.10
2022-09-15T18:48:37.283Z,15.00
2022-09-15T18:51:10.784Z,15.10
2022-09-15T18:53:39.704Z,15.00
2022-09-15T18:56:15.408Z,14.90
2022-09-15T18:58:43.099Z,14.90
2022-09-15T19:01:10.795Z,14.90
2022-09-15T19:03:43.847Z,14.80
2022-09-15T19:06:12.515Z,14.80
2022-09-15T19:08:40.463Z,14.80
2022-09-15T19:11:08.125Z,14.80
2022-09-15T19:13:35.785Z,14.80
2022-09-15T19:16:07.201Z,14.70
2022-09-15T19:18:35.878Z,14.70
2022-09-15T19:21:12.278Z,14.70
2022-09-15T19:23:39.911Z,14.70
2022-09-15T19:26:13.900Z,14.70
2022-09-15T19:28:42.584Z,14.70
2022-09-15T19:31:12.851Z,14.70
2022-09-15T19:33:40.984Z,14.60
2022-09-15T19:36:28.482Z,14.60
2022-09-15T19:39:00.445Z,14.50
2022-09-15T19:41:28.112Z,14.50
2022-09-15T19:43:57.634Z,14.50
2022-09-15T19:46:26.530Z,14.40
2022-09-15T19:48:55.596Z,14.30
2022-09-15T19:51:25.120Z,14.20
2022-09-15T19:53:59.684Z,14.10
2022-09-15T19:56:29.908Z,14.10
2022-09-15T19:59:00.073Z,14.00
2022-09-15T20:01:30.958Z,14.00
2022-09-15T20:03:59.569Z,14.10
2022-09-15T20:06:31.679Z,14.20
2022-09-15T20:09:00.510Z,14.20
2022-09-15T20:11:30.351Z,14.20
2022-09-15T20:13:59.054Z,14.20
2022-09-15T20:16:27.586Z,14.10
2022-09-15T20:18:56.204Z,14.10
2022-09-15T20:21:51.720Z,14.10
2022-09-15T20:24:22.489Z,14.00
2022-09-15T20:26:51.245Z,14.10
2022-09-15T20:29:20.828Z,14.10
2022-09-15T20:31:49.108Z,14.00
2022-09-15T20:34:18.786Z,14.00
2022-09-15T20:36:47.539Z,13.90
2022-09-15T20:39:19.446Z,13.90
2022-09-15T20:41:46.996Z,13.80
2022-09-15T20:44:15.716Z,13.80
2022-09-15T20:46:43.538Z,13.70
2022-09-15T20:49:12.628Z,13.70
2022-09-15T20:51:40.504Z,13.60
2022-09-15T20:54:08.108Z,13.50
2022-09-15T20:56:37.465Z,13.50
2022-09-15T20:59:07.813Z,13.40
2022-09-15T21:01:39.910Z,13.40
2022-09-15T21:04:10.703Z,13.40
2022-09-15T21:06:39.057Z,13.40
2022-09-15T21:09:08.047Z,13.40
2022-09-15T21:11:36.262Z,13.50
2022-09-15T21:14:05.102Z,13.50
2022-09-15T21:16:35.049Z,13.60
2022-09-15T21:19:02.919Z,13.60
2022-09-15T21:21:33.965Z,13.60
2022-09-15T21:24:08.008Z,13.60
2022-09-15T21:26:59.857Z,13.60
2022-09-15T21:29:30.136Z,13.60
2022-09-15T21:31:58.160Z,13.60
2022-09-15T21:34:26.460Z,13.50
2022-09-15T21:36:54.150Z,13.50
2022-09-15T21:39:21.866Z,13.50
2022-09-15T21:41:50.174Z,13.50
2022-09-15T21:44:18.063Z,13.50
2022-09-15T21:46:47.085Z,13.60
2022-09-15T21:49:15.068Z,13.50
2022-09-15T21:51:42.625Z,13.50
2022-09-15T21:54:10.855Z,13.50
2022-09-15T21:56:38.564Z,13.40
2022-09-15T21:59:08.247Z,13.40
2022-09-15T22:01:36.415Z,13.30
2022-09-15T22:04:10.466Z,13.30
2022-09-15T22:06:41.818Z,13.30
2022-09-15T22:09:21.379Z,13.30
2022-09-15T22:11:49.488Z,13.20
2022-09-15T22:14:17.234Z,13.20
2022-09-15T22:16:45.005Z,13.10
2022-09-15T22:19:13.661Z,13.10
2022-09-15T22:21:42.121Z,13.10
2022-09-15T22:24:13.847Z,13.00
2022-09-15T22:26:43.882Z,13.00
2022-09-15T22:29:12.119Z,13.10
2022-09-15T22:31:40.963Z,13.10
2022-09-15T22:34:08.665Z,13.10
2022-09-15T22:36:36.595Z,13.10
2022-09-15T22:39:06.370Z,13.10
2022-09-15T22:41:40.763Z,13.10
2022-09-15T22:44:20.419Z,13.10
2022-09-15T22:46:50.017Z,13.00
2022-09-15T22:49:17.948Z,13.10
2022-09-15T22:51:45.962Z,13.00
2022-09-15T22:54:14.489Z,12.90
2022-09-15T22:56:42.184Z,12.90
2022-09-15T22:59:09.825Z,12.90
2022-09-15T23:01:37.885Z,12.80
2022-09-15T23:04:05.567Z,12.80
2022-09-15T23:06:34.996Z,12.70
2022-09-15T23:09:09.875Z,12.70
2022-09-15T23:11:40.199Z,12.70
2022-09-15T23:14:17.757Z,12.70
2022-09-15T23:16:46.673Z,12.60
2022-09-15T23:19:15.746Z,12.60
2022-09-15T23:21:43.381Z,12.70
2022-09-15T23:24:12.623Z,12.70
2022-09-15T23:26:40.855Z,12.70
2022-09-15T23:29:08.590Z,12.70
2022-09-15T23:31:36.930Z,12.70
2022-09-15T23:34:05.208Z,12.80
2022-09-15T23:36:32.783Z,12.80
2022-09-15T23:39:00.390Z,12.80
2022-09-15T23:41:28.037Z,12.80
2022-09-15T23:43:56.977Z,12.80
2022-09-15T23:46:24.601Z,12.80
2022-09-15T23:48:52.220Z,12.70
2022-09-15T23:51:20.317Z,12.70
2022-09-15T23:53:52.458Z,12.70
2022-09-15T23:56:22.091Z,12.70
2022-09-15T23:58:51.277Z,12.70
